createdAt,value
2019-04-03T00:01:10.509Z,1.10
2019-04-03T00:04:04.706Z,1.20
2019-04-03T00:06:56.360Z,1.42
2019-04-03T00:09:49.679Z,1.40
2019-04-03T00:12:43.497Z,1.40
2019-04-03T00:15:45.149Z,1.37
2019-04-03T00:18:37.289Z,1.17
2019-04-03T00:21:30.602Z,1.30
2019-04-03T00:24:23.672Z,1.15
2019-04-03T00:27:17.752Z,1.30
2019-04-03T00:30:11.381Z,1.37
2019-04-03T00:33:04.623Z,1.27
2019-04-03T00:36:05.353Z,0.85
2019-04-03T00:38:58.407Z,1.10
2019-04-03T00:41:54.205Z,1.32
2019-04-03T00:44:44.779Z,1.17
2019-04-03T00:47:38.092Z,1.30
2019-04-03T00:50:31.232Z,0.82
2019-04-03T00:53:25.914Z,1.10
2019-04-03T00:56:21.620Z,1.10
2019-04-03T00:59:14.919Z,1.02
2019-04-03T01:02:07.979Z,1.10
2019-04-03T01:05:01.290Z,1.20
2019-04-03T01:07:54.599Z,1.98
2019-04-03T01:10:47.656Z,1.20
2019-04-03T01:13:40.971Z,1.35
2019-04-03T01:16:34.284Z,1.55
2019-04-03T01:19:27.596Z,1.22
2019-04-03T01:22:20.903Z,1.10
2019-04-03T01:25:13.962Z,1.50
2019-04-03T01:28:03.313Z,0.90
2019-04-03T01:30:57.259Z,1.07
2019-04-03T01:33:50.570Z,1.45
2019-04-03T01:36:43.885Z,1.70
2019-04-03T01:39:44.628Z,1.15
2019-04-03T01:42:37.671Z,1.15
2019-04-03T01:45:30.726Z,1.40
2019-04-03T01:48:23.882Z,1.05
2019-04-03T01:51:24.267Z,1.70
2019-04-03T01:54:28.589Z,1.00
2019-04-03T01:57:21.646Z,1.30
2019-04-03T02:00:08.111Z,1.17
2019-04-03T02:03:02.118Z,1.00
2019-04-03T02:05:54.410Z,1.05
2019-04-03T02:08:47.462Z,1.02
2019-04-03T02:11:40.536Z,0.90
2019-04-03T02:14:33.841Z,1.25
2019-04-03T02:17:26.897Z,1.10
2019-04-03T02:20:20.169Z,1.20
2019-04-03T02:23:17.609Z,1.20
2019-04-03T02:26:10.921Z,1.50
2019-04-03T02:29:06.588Z,0.90
2019-04-03T02:31:43.246Z,0.85
2019-04-03T02:34:36.943Z,1.00
2019-04-03T02:37:26.004Z,1.22
2019-04-03T02:43:39.144Z,0.90
2019-04-03T02:46:29.995Z,0.95
2019-04-03T02:49:23.825Z,0.95
2019-04-03T02:52:16.891Z,1.20
2019-04-03T02:55:10.712Z,0.90
2019-04-03T02:58:03.980Z,1.00
2019-04-03T03:00:57.064Z,0.88
2019-04-03T03:03:50.208Z,1.15
2019-04-03T03:06:43.180Z,1.00
2019-04-03T03:09:32.397Z,1.20
2019-04-03T03:12:27.820Z,1.17
2019-04-03T03:15:20.274Z,1.00
2019-04-03T03:18:12.843Z,1.10
2019-04-03T03:21:02.165Z,1.40
2019-04-03T03:23:56.196Z,1.10
2019-04-03T03:26:48.430Z,1.40
2019-04-03T03:29:42.250Z,0.90
2019-04-03T03:32:37.455Z,0.90
2019-04-03T03:35:38.410Z,1.25
2019-04-03T03:38:26.917Z,0.98
2019-04-03T03:41:22.204Z,1.35
2019-04-03T03:44:11.839Z,1.30
2019-04-03T03:47:04.439Z,1.72
2019-04-03T03:49:57.344Z,1.25
2019-04-03T03:52:50.795Z,0.93
2019-04-03T03:55:44.116Z,1.57
2019-04-03T03:58:37.510Z,1.40
2019-04-03T04:01:31.923Z,1.77
2019-04-03T04:04:24.557Z,1.75
2019-04-03T04:07:13.912Z,1.25
2019-04-03T04:10:15.409Z,1.52
2019-04-03T04:13:13.480Z,1.10
2019-04-03T04:16:04.299Z,1.35
2019-04-03T04:18:57.382Z,1.65
2019-04-03T04:21:48.788Z,1.60
2019-04-03T04:24:42.349Z,1.10
2019-04-03T04:27:45.128Z,1.30
2019-04-03T04:30:38.699Z,1.30
2019-04-03T04:33:31.754Z,1.50
2019-04-03T04:36:24.899Z,1.35
2019-04-03T04:39:17.863Z,1.50
2019-04-03T04:45:16.273Z,2.37
2019-04-03T04:48:09.321Z,1.60
2019-04-03T04:51:02.566Z,2.30
2019-04-03T04:53:55.689Z,1.42
2019-04-03T04:56:48.745Z,1.75
2019-04-03T04:59:48.971Z,1.90
2019-04-03T05:02:42.860Z,2.20
2019-04-03T05:05:36.106Z,1.90
2019-04-03T05:08:29.178Z,1.90
2019-04-03T05:11:22.728Z,2.05
2019-04-03T05:14:18.025Z,1.98
2019-04-03T05:17:09.790Z,2.62
2019-04-03T05:20:02.417Z,3.05
2019-04-03T05:22:55.806Z,2.30
2019-04-03T05:25:48.775Z,2.15
2019-04-03T05:28:53.583Z,1.60
2019-04-03T05:31:38.503Z,1.57
2019-04-03T05:34:30.508Z,3.10
2019-04-03T05:37:23.631Z,1.85
2019-04-03T05:40:16.742Z,2.30
2019-04-03T05:43:09.935Z,2.55
2019-04-03T05:49:10.891Z,1.35
2019-04-03T05:51:58.575Z,2.20
2019-04-03T05:54:51.899Z,2.45
2019-04-03T05:57:46.161Z,2.60
2019-04-03T06:01:02.640Z,1.80
2019-04-03T06:03:45.256Z,1.92
2019-04-03T06:06:37.094Z,1.50
2019-04-03T06:09:29.964Z,2.72
2019-04-03T06:12:30.483Z,1.82
2019-04-03T06:15:21.701Z,1.50
2019-04-03T06:18:12.724Z,2.27
2019-04-03T06:21:05.767Z,2.27
2019-04-03T06:24:00.618Z,1.90
2019-04-03T06:26:53.945Z,1.82
2019-04-03T06:29:46.995Z,2.00
2019-04-03T06:32:40.065Z,1.92
2019-04-03T06:35:35.857Z,2.10
2019-04-03T06:38:28.745Z,2.58
2019-04-03T06:41:21.769Z,2.12
2019-04-03T06:44:14.825Z,2.27
2019-04-03T06:47:08.559Z,1.85
2019-04-03T06:53:06.796Z,1.82
2019-04-03T06:55:59.853Z,1.80
2019-04-03T06:58:55.719Z,2.45
2019-04-03T07:01:50.557Z,1.90
2019-04-03T07:04:38.900Z,1.67
2019-04-03T07:07:34.568Z,1.50
2019-04-03T07:10:25.639Z,2.00
2019-04-03T07:13:15.409Z,1.67
2019-04-03T07:16:09.281Z,1.95
2019-04-03T07:19:02.087Z,2.20
2019-04-03T07:21:55.931Z,2.00
2019-04-03T07:24:48.129Z,1.52
2019-04-03T07:27:42.359Z,1.90
2019-04-03T07:30:30.635Z,2.20
2019-04-03T07:33:24.085Z,2.47
2019-04-03T07:36:17.003Z,2.27
2019-04-03T07:39:11.045Z,2.27
2019-04-03T07:42:03.118Z,1.70
2019-04-03T07:44:56.425Z,2.02
2019-04-03T07:47:51.311Z,2.25
2019-04-03T07:50:44.072Z,1.80
2019-04-03T07:53:33.461Z,2.52
2019-04-03T07:56:26.950Z,2.08
2019-04-03T07:59:20.771Z,2.45
2019-04-03T08:02:12.101Z,2.92
2019-04-03T08:05:02.963Z,2.40
2019-04-03T08:07:56.525Z,2.30
2019-04-03T08:10:49.392Z,2.70
2019-04-03T08:13:42.605Z,2.35
2019-04-03T08:16:35.694Z,1.87
2019-04-03T08:19:37.193Z,2.15
2019-04-03T08:22:32.841Z,2.20
2019-04-03T08:25:23.573Z,2.25
2019-04-03T08:28:17.003Z,2.42
2019-04-03T08:31:11.487Z,2.45
2019-04-03T08:34:14.676Z,2.12
2019-04-03T08:36:56.296Z,2.50
2019-04-03T08:39:50.170Z,1.80
2019-04-03T08:42:44.121Z,2.08
2019-04-03T08:45:38.433Z,2.58
2019-04-03T08:48:26.729Z,2.33
2019-04-03T08:51:15.950Z,2.50
2019-04-03T08:54:10.581Z,2.37
2019-04-03T08:57:02.570Z,1.75
2019-04-03T08:59:55.878Z,1.90
2019-04-03T09:02:49.191Z,1.70
2019-04-03T09:05:42.031Z,1.40
2019-04-03T09:08:35.317Z,1.65
2019-04-03T09:11:28.366Z,1.60
2019-04-03T09:14:21.420Z,1.47
2019-04-03T09:17:14.477Z,1.50
2019-04-03T09:20:18.026Z,1.67
2019-04-03T09:23:11.337Z,2.08
2019-04-03T09:26:12.584Z,1.27
2019-04-03T09:29:05.896Z,1.10
2019-04-03T09:32:00.745Z,1.82
2019-04-03T09:34:54.313Z,1.82
2019-04-03T09:37:48.403Z,1.25
2019-04-03T09:40:41.962Z,1.22
2019-04-03T09:43:24.010Z,1.00
2019-04-03T09:49:24.361Z,1.40
2019-04-03T09:52:17.514Z,1.52
2019-04-03T09:55:10.824Z,1.40
2019-04-03T09:57:56.601Z,1.92
2019-04-03T10:00:51.053Z,1.98
2019-04-03T10:03:44.105Z,1.75
2019-04-03T10:06:37.505Z,1.90
2019-04-03T10:09:30.558Z,1.50
2019-04-03T10:12:18.046Z,1.32
2019-04-03T10:15:10.753Z,1.52
2019-04-03T10:21:17.801Z,1.40
2019-04-03T10:24:10.093Z,1.40
2019-04-03T10:27:03.407Z,1.27
2019-04-03T10:29:56.594Z,1.37
2019-04-03T10:32:50.351Z,1.37
2019-04-03T10:35:42.822Z,1.35
2019-04-03T10:38:35.880Z,1.52
2019-04-03T10:41:31.519Z,1.57
2019-04-03T10:44:25.326Z,1.30
2019-04-03T10:47:16.334Z,1.20
2019-04-03T10:50:06.122Z,1.42
2019-04-03T10:53:06.571Z,1.17
2019-04-03T10:56:00.568Z,1.22
2019-04-03T10:58:52.739Z,1.32
2019-04-03T11:01:48.268Z,0.90
2019-04-03T11:05:12.058Z,1.17
2019-04-03T11:08:05.350Z,1.27
2019-04-03T11:10:58.903Z,1.20
2019-04-03T11:13:40.972Z,1.15
2019-04-03T11:16:34.379Z,1.70
2019-04-03T11:19:16.080Z,1.10
2019-04-03T11:21:53.194Z,0.82
2019-04-03T11:24:27.819Z,0.85
2019-04-03T11:27:23.101Z,0.60
2019-04-03T11:30:22.044Z,1.02
2019-04-03T11:33:13.439Z,1.00
2019-04-03T11:36:04.460Z,1.00
2019-04-03T11:39:08.530Z,0.80
2019-04-03T11:41:58.819Z,1.27
2019-04-03T11:44:52.081Z,0.90
2019-04-03T11:47:45.834Z,0.90
2019-04-03T11:50:29.990Z,1.12
2019-04-03T11:53:22.791Z,1.00
2019-04-03T11:56:16.461Z,0.93
2019-04-03T11:59:09.529Z,0.80
2019-04-03T12:02:02.221Z,0.80
2019-04-03T12:04:55.882Z,0.90
2019-04-03T12:07:44.616Z,1.10
2019-04-03T12:10:38.058Z,0.88
2019-04-03T12:13:31.367Z,0.85
2019-04-03T12:16:25.911Z,0.60
2019-04-03T12:19:17.481Z,0.72
2019-04-03T12:22:11.051Z,0.60
2019-04-03T12:25:04.106Z,1.17
2019-04-03T12:27:57.417Z,1.07
2019-04-03T12:30:50.543Z,0.85
2019-04-03T12:33:54.290Z,0.90
2019-04-03T12:36:41.495Z,0.98
2019-04-03T12:39:40.907Z,1.00
2019-04-03T12:42:34.217Z,1.02
2019-04-03T12:45:28.314Z,0.90
2019-04-03T12:48:20.843Z,0.95
2019-04-03T12:51:14.349Z,0.90
2019-04-03T12:54:07.345Z,0.90
2019-04-03T12:57:02.134Z,0.70
2019-04-03T12:59:55.114Z,1.02
2019-04-03T13:02:48.056Z,1.27
2019-04-03T13:05:40.972Z,0.90
2019-04-03T13:08:34.278Z,0.90
2019-04-03T13:11:27.847Z,0.75
2019-04-03T13:14:25.257Z,0.80
2019-04-03T13:17:14.814Z,0.70
2019-04-03T13:20:05.835Z,0.80
2019-04-03T13:23:05.050Z,0.90
2019-04-03T13:26:08.536Z,1.25
2019-04-03T13:29:01.544Z,0.90
2019-04-03T13:31:51.243Z,0.70
2019-04-03T13:34:37.567Z,1.02
2019-04-03T13:37:38.153Z,1.02
2019-04-03T13:40:39.657Z,0.72
2019-04-03T13:43:45.004Z,1.05
2019-04-03T13:46:47.536Z,0.90
2019-04-03T13:49:39.049Z,1.02
2019-04-03T13:52:40.277Z,0.88
2019-04-03T13:55:24.672Z,0.95
2019-04-03T13:58:20.591Z,0.98
2019-04-03T14:01:11.786Z,0.90
2019-04-03T14:04:04.911Z,0.80
2019-04-03T14:06:58.407Z,1.05
2019-04-03T14:09:55.095Z,0.78
2019-04-03T14:12:40.156Z,1.00
2019-04-03T14:15:31.129Z,0.82
2019-04-03T14:18:23.835Z,0.60
2019-04-03T14:21:16.781Z,0.62
2019-04-03T14:24:09.661Z,1.02
2019-04-03T14:27:02.646Z,1.00
2019-04-03T14:30:04.200Z,0.80
2019-04-03T14:32:55.130Z,1.02
2019-04-03T14:35:52.594Z,0.80
2019-04-03T14:38:36.587Z,0.70
2019-04-03T14:41:27.678Z,0.88
2019-04-03T14:47:27.901Z,1.02
2019-04-03T14:53:38.026Z,0.78
2019-04-03T14:56:23.934Z,1.00
2019-04-03T14:59:21.219Z,1.20
2019-04-03T15:02:13.864Z,0.93
2019-04-03T15:05:21.995Z,0.90
2019-04-03T15:08:29.154Z,1.02
2019-04-03T15:11:21.378Z,0.95
2019-04-03T15:14:47.091Z,1.10
2019-04-03T15:17:41.904Z,0.80
2019-04-03T15:20:35.223Z,1.00
2019-04-03T15:23:41.542Z,0.75
2019-04-03T15:29:44.091Z,0.95
2019-04-03T15:32:37.720Z,1.20
2019-04-03T15:35:32.082Z,1.37
2019-04-03T15:38:13.103Z,1.20
2019-04-03T15:41:03.977Z,1.00
2019-04-03T15:43:57.185Z,1.32
2019-04-03T15:46:50.090Z,1.00
2019-04-03T15:50:39.952Z,1.47
2019-04-03T15:53:29.194Z,1.15
2019-04-03T15:56:23.785Z,1.20
2019-04-03T15:59:18.659Z,1.00
2019-04-03T16:05:39.832Z,1.00
2019-04-03T16:11:45.126Z,1.00
2019-04-03T16:14:41.255Z,0.75
2019-04-03T16:17:47.427Z,0.72
2019-04-03T16:21:05.290Z,1.00
2019-04-03T16:24:00.532Z,0.90
2019-04-03T16:36:31.430Z,1.42
2019-04-03T16:39:18.143Z,1.45
2019-04-03T16:42:33.900Z,1.30
2019-04-03T16:45:08.165Z,0.80
2019-04-03T16:47:46.680Z,0.93
2019-04-03T16:50:32.077Z,1.20
2019-04-03T16:54:03.191Z,0.82
2019-04-03T16:57:07.178Z,1.40
2019-04-03T17:00:00.493Z,1.20
2019-04-03T17:02:53.957Z,0.90
2019-04-03T17:05:46.602Z,1.05
2019-04-03T17:08:40.169Z,1.00
2019-04-03T17:11:33.561Z,1.02
2019-04-03T17:14:27.194Z,1.25
2019-04-03T17:17:20.113Z,0.80
2019-04-03T17:20:14.962Z,0.85
2019-04-03T17:23:07.793Z,0.80
2019-04-03T17:26:01.066Z,0.93
2019-04-03T17:29:02.964Z,0.90
2019-04-03T17:31:47.179Z,0.80
2019-04-03T17:34:44.585Z,0.88
2019-04-03T17:37:37.664Z,1.07
2019-04-03T17:40:47.081Z,1.10
2019-04-03T17:43:43.133Z,1.27
2019-04-03T17:46:40.048Z,0.80
2019-04-03T17:49:30.855Z,1.00
2019-04-03T17:52:24.430Z,1.00
2019-04-03T17:55:17.226Z,1.47
2019-04-03T17:58:12.588Z,1.12
2019-04-03T18:01:26.385Z,1.40
2019-04-03T18:04:22.245Z,1.07
2019-04-03T18:07:15.306Z,1.42
2019-04-03T18:10:12.486Z,1.20
2019-04-03T18:13:01.928Z,1.20
2019-04-03T18:15:58.897Z,1.17
2019-04-03T18:18:50.601Z,1.15
2019-04-03T18:21:43.659Z,1.02
2019-04-03T18:24:39.057Z,1.20
2019-04-03T18:27:33.484Z,1.10
2019-04-03T18:30:25.389Z,1.10
2019-04-03T18:33:19.466Z,1.10
2019-04-03T18:36:12.526Z,0.88
2019-04-03T18:39:05.578Z,1.57
2019-04-03T18:41:58.888Z,1.60
2019-04-03T18:44:51.943Z,1.30
2019-04-03T18:47:46.509Z,1.42
2019-04-03T18:50:38.058Z,1.60
2019-04-03T18:53:31.112Z,1.50
2019-04-03T18:56:24.424Z,1.57
2019-04-03T18:59:15.346Z,1.57
2019-04-03T19:02:07.467Z,1.70
2019-04-03T19:05:02.165Z,1.22
2019-04-03T19:11:15.056Z,1.98
2019-04-03T19:14:05.449Z,1.30
2019-04-03T19:16:59.624Z,1.75
2019-04-03T19:19:54.413Z,1.90
2019-04-03T19:22:45.736Z,1.80
2019-04-03T19:25:39.311Z,4.30
2019-04-03T19:28:34.381Z,2.42
2019-04-03T19:31:33.891Z,2.15
2019-04-03T19:34:26.947Z,3.47
2019-04-03T19:37:57.096Z,3.33
2019-04-03T19:40:50.503Z,2.80
2019-04-03T19:43:39.632Z,2.52
2019-04-03T19:46:16.396Z,2.22
2019-04-03T19:49:13.769Z,2.45
2019-04-03T19:52:03.175Z,2.83
2019-04-03T19:54:56.235Z,1.85
2019-04-03T19:57:49.293Z,2.47
2019-04-03T20:00:42.691Z,2.17
2019-04-03T20:03:36.172Z,2.33
2019-04-03T20:06:29.310Z,2.70
2019-04-03T20:09:31.902Z,2.47
2019-04-03T20:18:29.103Z,1.80
2019-04-03T20:21:22.754Z,1.90
2019-04-03T20:24:16.235Z,3.00
2019-04-03T20:30:09.520Z,1.80
2019-04-03T20:33:02.830Z,2.35
2019-04-03T20:35:56.158Z,2.05
2019-04-03T20:38:49.712Z,2.17
2019-04-03T20:41:50.186Z,2.55
2019-04-03T20:44:48.587Z,2.65
2019-04-03T20:47:39.623Z,2.77
2019-04-03T20:50:33.453Z,2.20
2019-04-03T20:53:26.507Z,2.47
2019-04-03T20:56:29.607Z,2.17
2019-04-03T20:59:30.280Z,2.10
2019-04-03T21:02:19.440Z,2.58
2019-04-03T21:05:12.816Z,2.35
2019-04-03T21:08:08.939Z,2.80
2019-04-03T21:11:02.871Z,2.75
2019-04-03T21:13:44.807Z,1.70
2019-04-03T21:16:43.783Z,1.70
2019-04-03T21:19:38.347Z,1.95
2019-04-03T21:22:31.937Z,2.35
2019-04-03T21:25:25.998Z,3.00
2019-04-03T21:28:19.661Z,2.50
2019-04-03T21:31:13.146Z,2.83
2019-04-03T21:34:06.956Z,3.10
2019-04-03T21:37:00.274Z,2.00
2019-04-03T21:39:49.745Z,1.98
2019-04-03T21:45:48.650Z,1.70
2019-04-03T21:48:53.741Z,2.33
2019-04-03T21:51:47.307Z,2.00
2019-04-03T21:54:41.141Z,2.02
2019-04-03T21:57:37.562Z,1.87
2019-04-03T22:00:32.706Z,1.80
2019-04-03T22:03:26.445Z,1.50
2019-04-03T22:06:22.059Z,2.00
2019-04-03T22:09:16.648Z,2.15
2019-04-03T22:12:10.476Z,2.62
2019-04-03T22:15:03.796Z,1.60
2019-04-03T22:17:59.149Z,2.45
2019-04-03T22:21:06.280Z,2.50
2019-04-03T22:24:09.321Z,2.05
2019-04-03T22:27:04.171Z,2.90
2019-04-03T22:29:57.999Z,2.80
2019-04-03T22:32:51.820Z,3.77
2019-04-03T22:38:56.363Z,3.67
2019-04-03T22:41:32.491Z,2.72
2019-04-03T22:47:40.845Z,3.80
2019-04-03T22:50:35.334Z,3.37
2019-04-03T22:53:28.041Z,3.10
2019-04-03T22:56:21.356Z,3.27
2019-04-03T22:59:15.434Z,3.60
2019-04-03T23:02:08.745Z,2.37
2019-04-03T23:05:01.544Z,2.67
2019-04-03T23:07:54.600Z,3.55
2019-04-03T23:10:55.337Z,3.70
2019-04-03T23:13:48.909Z,3.62
2019-04-03T23:16:38.594Z,2.30
2019-04-03T23:19:32.535Z,1.95
2019-04-03T23:22:23.923Z,2.08
2019-04-03T23:25:17.800Z,1.70
2019-04-03T23:28:11.626Z,2.02
2019-04-03T23:31:05.455Z,1.95
2019-04-03T23:33:53.322Z,2.20
2019-04-03T23:36:50.279Z,2.40
2019-04-03T23:39:47.265Z,3.00
2019-04-03T23:42:40.506Z,2.00
2019-04-03T23:45:34.600Z,1.80
2019-04-03T23:48:24.042Z,2.42
2019-04-03T23:51:23.153Z,3.08
2019-04-03T23:54:07.335Z,2.98
2019-04-03T23:56:56.806Z,3.92
2019-04-03T23:59:49.869Z,3.47
